Time;durP1;ratioP1;P1;durP2;ratioP2;P2;SDS_P1;SDS_P2;PMS_P1;PMS_P2;Temp;Humidity;BMP_temperature;BMP_pressure;BME280_temperature;BME280_humidity;BME280_pressure;Samples;Min_cycle;Max_cycle;Signal;HPM_P1;HPM_P2
2022/08/15 00:01:58;;;;;;;9.65;8.55;;;;;;;;;;5013001;28;20257;-16
2022/08/15 00:04:25;;;;;;;9.75;8.85;;;;;;;;;;5012582;28;20262;-16
2022/08/15 00:07:02;;;;;;;11.73;9.45;;;;;;;;;;5000486;28;20242;-15
2022/08/15 00:09:30;;;;;;;9.48;8.43;;;;;;;;;;5012371;28;20949;-16
2022/08/15 00:12:17;;;;;;;10.57;8.13;;;;;;;;;;5012751;28;20235;-16
2022/08/15 00:15:01;;;;;;;9.75;8.85;;;;;;;;;;5012571;28;20235;-15
2022/08/15 00:17:29;;;;;;;9.77;8.88;;;;;;;;;;5012502;28;21263;-16
2022/08/15 00:20:15;;;;;;;9.60;8.70;;;;;;;;;;5012136;28;20743;-16
2022/08/15 00:22:51;;;;;;;14.60;9.10;;;;;;;;;;5011295;28;20298;-15
2022/08/15 00:25:19;;;;;;;10.15;9.15;;;;;;;;;;5011771;28;20228;-16
2022/08/15 00:27:53;;;;;;;9.82;8.75;;;;;;;;;;5012404;28;20327;-14
2022/08/15 00:30:21;;;;;;;13.75;9.30;;;;;;;;;;5010620;28;20243;-15
2022/08/15 00:32:53;;;;;;;9.85;8.85;;;;;;;;;;5002220;28;20239;-16
2022/08/15 00:35:40;;;;;;;11.20;8.90;;;;;;;;;;5012387;28;20238;-15
2022/08/15 00:38:24;;;;;;;9.98;9.07;;;;;;;;;;5012287;28;20350;-16
2022/08/15 00:43:52;;;;;;;10.27;9.30;;;;;;;;;;5004862;28;20319;-15
2022/08/15 00:46:22;;;;;;;11.25;9.40;;;;;;;;;;5011960;28;20234;-15
2022/08/15 00:48:50;;;;;;;12.13;9.50;;;;;;;;;;5012069;28;20314;-15
2022/08/15 00:51:18;;;;;;;9.50;8.60;;;;;;;;;;5009513;28;21005;-15
2022/08/15 00:54:02;;;;;;;14.50;9.25;;;;;;;;;;5012035;28;20227;-15
2022/08/15 00:56:31;;;;;;;10.35;9.45;;;;;;;;;;5011975;28;20238;-15
2022/08/15 00:59:01;;;;;;;10.25;9.35;;;;;;;;;;5011931;28;20224;-16
2022/08/15 01:01:32;;;;;;;13.73;8.80;;;;;;;;;;5011842;28;20263;-15
2022/08/15 01:04:02;;;;;;;10.57;9.15;;;;;;;;;;5011115;28;20948;-16
2022/08/15 01:06:45;;;;;;;10.48;8.77;;;;;;;;;;5011656;28;20259;-15
2022/08/15 01:09:19;;;;;;;10.57;9.52;;;;;;;;;;5012884;28;20255;-16
2022/08/15 01:11:49;;;;;;;10.45;9.43;;;;;;;;;;5016082;28;20235;-15
2022/08/15 01:14:17;;;;;;;9.90;8.90;;;;;;;;;;5010475;28;20699;-15
2022/08/15 01:17:04;;;;;;;9.60;8.70;;;;;;;;;;5010873;28;20290;-15
2022/08/15 01:19:37;;;;;;;12.95;9.07;;;;;;;;;;5007512;28;20231;-16
2022/08/15 01:22:18;;;;;;;10.10;9.30;;;;;;;;;;5011293;28;20665;-15
2022/08/15 01:24:53;;;;;;;10.27;9.27;;;;;;;;;;5011406;28;20317;-16
2022/08/15 01:27:42;;;;;;;9.90;9.10;;;;;;;;;;5011711;28;20236;-15
2022/08/15 01:30:10;;;;;;;9.93;9.05;;;;;;;;;;5010937;28;20239;-15
2022/08/15 01:32:58;;;;;;;10.15;9.25;;;;;;;;;;5011740;28;20585;-15
2022/08/15 01:35:26;;;;;;;10.25;9.13;;;;;;;;;;4997888;28;20230;-15
2022/08/15 01:37:54;;;;;;;9.80;8.90;;;;;;;;;;5011939;28;20235;-16
2022/08/15 01:40:28;;;;;;;10.02;9.02;;;;;;;;;;5010724;28;20259;-15
2022/08/15 01:43:15;;;;;;;11.32;8.73;;;;;;;;;;5010967;28;20663;-15
2022/08/15 01:45:43;;;;;;;9.85;8.95;;;;;;;;;;5011075;28;20699;-16
2022/08/15 01:48:12;;;;;;;10.02;8.88;;;;;;;;;;5011324;28;20231;-16
2022/08/15 01:50:49;;;;;;;9.77;8.73;;;;;;;;;;5011227;28;20243;-15
2022/08/15 01:53:18;;;;;;;12.30;9.70;;;;;;;;;;5010646;28;20231;-16
2022/08/15 01:55:51;;;;;;;10.85;9.75;;;;;;;;;;5011081;28;20579;-15
2022/08/15 01:58:20;;;;;;;11.05;9.15;;;;;;;;;;5011199;28;20301;-16
2022/08/15 02:00:50;;;;;;;10.25;9.35;;;;;;;;;;5011182;28;20290;-15
2022/08/15 02:03:17;;;;;;;10.65;9.73;;;;;;;;;;5010371;28;20247;-15
2022/08/15 02:05:47;;;;;;;11.48;9.73;;;;;;;;;;5011037;28;20236;-15
2022/08/15 02:08:23;;;;;;;13.10;9.93;;;;;;;;;;5010235;28;20222;-15
2022/08/15 02:11:04;;;;;;;10.50;9.32;;;;;;;;;;5010666;28;20251;-16
2022/08/15 02:13:43;;;;;;;11.70;8.90;;;;;;;;;;5010817;28;20325;-15
2022/08/15 02:16:13;;;;;;;10.10;8.77;;;;;;;;;;5010957;28;20231;-16
2022/08/15 02:18:46;;;;;;;13.15;9.05;;;;;;;;;;5011113;28;20254;-16
2022/08/15 02:21:18;;;;;;;10.88;8.82;;;;;;;;;;5010225;28;20236;-15
2022/08/15 02:23:45;;;;;;;9.20;8.32;;;;;;;;;;5010758;28;20730;-15
2022/08/15 02:26:14;;;;;;;9.60;8.63;;;;;;;;;;5010215;28;20231;-15
2022/08/15 02:28:52;;;;;;;11.70;8.85;;;;;;;;;;5010236;28;20228;-15
2022/08/15 02:31:21;;;;;;;11.32;8.77;;;;;;;;;;5010276;28;20700;-16
2022/08/15 02:33:51;;;;;;;12.10;8.57;;;;;;;;;;5009866;28;20294;-16
2022/08/15 02:36:20;;;;;;;10.32;8.45;;;;;;;;;;5009602;28;20699;-16
2022/08/15 02:38:59;;;;;;;9.82;8.90;;;;;;;;;;5010598;28;20464;-16
2022/08/15 02:41:31;;;;;;;9.48;8.63;;;;;;;;;;5010371;28;20234;-15
2022/08/15 02:44:11;;;;;;;9.48;8.55;;;;;;;;;;5010340;28;20231;-16
2022/08/15 02:46:45;;;;;;;9.35;8.30;;;;;;;;;;5012792;28;20235;-16
2022/08/15 02:49:33;;;;;;;11.05;8.45;;;;;;;;;;5013962;28;20707;-15
2022/08/15 02:52:14;;;;;;;9.38;8.48;;;;;;;;;;5014019;28;20247;-15
2022/08/15 02:54:48;;;;;;;9.55;8.73;;;;;;;;;;5014041;28;20263;-15
2022/08/15 02:57:31;;;;;;;10.13;8.07;;;;;;;;;;5013293;28;20326;-16
2022/08/15 03:00:19;;;;;;;8.63;7.82;;;;;;;;;;5013376;28;20238;-15
2022/08/15 03:02:50;;;;;;;9.50;8.57;;;;;;;;;;5013294;28;20355;-15
2022/08/15 03:05:18;;;;;;;10.18;7.90;;;;;;;;;;5014418;28;20318;-15
2022/08/15 03:07:45;;;;;;;9.57;7.78;;;;;;;;;;5014424;28;20243;-15
2022/08/15 03:10:12;;;;;;;9.13;8.23;;;;;;;;;;5014516;28;20236;-16
2022/08/15 03:12:58;;;;;;;10.45;7.95;;;;;;;;;;5014370;28;20247;-15
2022/08/15 03:15:30;;;;;;;9.63;7.38;;;;;;;;;;5014089;28;20974;-15
2022/08/15 03:18:01;;;;;;;8.57;7.68;;;;;;;;;;5014532;28;20255;-16
2022/08/15 03:20:29;;;;;;;10.00;8.52;;;;;;;;;;5013947;28;20239;-16
2022/08/15 03:22:57;;;;;;;11.80;8.63;;;;;;;;;;5013942;28;20232;-15
2022/08/15 03:25:25;;;;;;;9.18;8.27;;;;;;;;;;5013520;28;20231;-15
2022/08/15 03:27:57;;;;;;;11.13;8.73;;;;;;;;;;5014160;28;20266;-16
2022/08/15 03:30:25;;;;;;;9.18;8.25;;;;;;;;;;5013557;28;20687;-16
2022/08/15 03:32:53;;;;;;;9.02;8.13;;;;;;;;;;5014435;28;20239;-15
2022/08/15 03:35:20;;;;;;;10.07;8.68;;;;;;;;;;5013886;28;21017;-15
2022/08/15 03:37:50;;;;;;;9.13;8.23;;;;;;;;;;5014134;28;20259;-15
2022/08/15 03:40:27;;;;;;;9.35;8.45;;;;;;;;;;5014046;28;20250;-16
2022/08/15 03:42:58;;;;;;;9.70;7.88;;;;;;;;;;5013531;28;20730;-15
2022/08/15 03:45:35;;;;;;;8.93;7.45;;;;;;;;;;5013724;28;20234;-15
2022/08/15 03:48:08;;;;;;;9.90;8.90;;;;;;;;;;5013962;28;21416;-16
2022/08/15 03:50:47;;;;;;;8.93;8.13;;;;;;;;;;5013181;28;20246;-16
2022/08/15 03:53:15;;;;;;;10.07;8.15;;;;;;;;;;5013525;28;20247;-15
2022/08/15 03:55:44;;;;;;;10.02;8.05;;;;;;;;;;5013783;28;20725;-15
2022/08/15 03:58:22;;;;;;;8.95;8.15;;;;;;;;;;5012747;28;20230;-16
2022/08/15 04:01:03;;;;;;;11.52;8.68;;;;;;;;;;5013458;28;20731;-16
2022/08/15 04:03:31;;;;;;;9.57;8.43;;;;;;;;;;5013204;28;20255;-16
2022/08/15 04:06:00;;;;;;;10.68;9.02;;;;;;;;;;5013513;28;20250;-16
2022/08/15 04:08:33;;;;;;;9.70;8.70;;;;;;;;;;5013655;28;20235;-16
2022/08/15 04:11:21;;;;;;;10.18;8.88;;;;;;;;;;5013409;28;20228;-15
2022/08/15 04:14:06;;;;;;;10.27;9.10;;;;;;;;;;5013378;28;20228;-15
2022/08/15 04:16:53;;;;;;;12.38;10.10;;;;;;;;;;5008268;28;20234;-15
2022/08/15 04:19:32;;;;;;;10.00;9.10;;;;;;;;;;5013237;28;20234;-15
2022/08/15 04:22:14;;;;;;;11.27;9.48;;;;;;;;;;5012753;28;20251;-15
2022/08/15 04:25:01;;;;;;;10.20;9.20;;;;;;;;;;5013265;28;20952;-15
2022/08/15 04:27:39;;;;;;;10.77;9.23;;;;;;;;;;5013345;28;20343;-15
2022/08/15 04:30:12;;;;;;;10.65;9.30;;;;;;;;;;5013227;28;20243;-15
2022/08/15 04:32:43;;;;;;;12.57;10.57;;;;;;;;;;5013152;28;20322;-15
2022/08/15 04:35:31;;;;;;;11.98;9.85;;;;;;;;;;5013327;28;20239;-15
2022/08/15 04:37:58;;;;;;;11.07;9.85;;;;;;;;;;5012876;28;20231;-15
2022/08/15 04:40:28;;;;;;;12.45;9.57;;;;;;;;;;5013521;28;20267;-15
2022/08/15 04:43:16;;;;;;;17.23;9.32;;;;;;;;;;5012413;28;20240;-15
2022/08/15 04:45:44;;;;;;;11.23;8.82;;;;;;;;;;5013009;28;20671;-15
2022/08/15 04:48:14;;;;;;;13.50;10.07;;;;;;;;;;5012664;28;20230;-15
2022/08/15 04:50:48;;;;;;;12.18;10.18;;;;;;;;;;4999263;28;20231;-15
2022/08/15 04:53:15;;;;;;;11.05;9.52;;;;;;;;;;5012671;28;20258;-15
2022/08/15 04:55:48;;;;;;;15.25;10.32;;;;;;;;;;5012789;28;20234;-16
2022/08/15 04:58:17;;;;;;;13.25;9.93;;;;;;;;;;5012461;28;20240;-15
2022/08/15 05:01:07;;;;;;;12.27;9.88;;;;;;;;;;5001384;28;20615;-15
2022/08/15 05:03:34;;;;;;;12.60;10.30;;;;;;;;;;5012950;28;20255;-15
2022/08/15 05:06:02;;;;;;;12.93;9.40;;;;;;;;;;5012683;28;20242;-15
2022/08/15 05:08:49;;;;;;;12.80;10.52;;;;;;;;;;5011859;28;20242;-16
2022/08/15 05:11:18;;;;;;;12.18;10.98;;;;;;;;;;5011461;28;20285;-16
2022/08/15 05:13:46;;;;;;;16.52;11.52;;;;;;;;;;5002468;28;20247;-16
2022/08/15 05:16:15;;;;;;;13.13;11.00;;;;;;;;;;5008348;28;20232;-16
2022/08/15 05:18:43;;;;;;;13.32;11.57;;;;;;;;;;5005186;28;20244;-16
2022/08/15 05:21:13;;;;;;;12.32;10.95;;;;;;;;;;5003291;28;20706;-15
2022/08/15 05:23:42;;;;;;;11.85;10.73;;;;;;;;;;5004823;28;20636;-14
2022/08/15 05:26:10;;;;;;;12.63;10.80;;;;;;;;;;5002436;28;20232;-16
2022/08/15 05:28:58;;;;;;;14.63;11.23;;;;;;;;;;5002395;28;20240;-16
2022/08/15 05:31:27;;;;;;;13.85;11.85;;;;;;;;;;5009813;28;20235;-16
2022/08/15 05:34:00;;;;;;;14.95;13.00;;;;;;;;;;5003462;28;20239;-15
2022/08/15 05:36:27;;;;;;;15.95;13.38;;;;;;;;;;5009354;28;20223;-16
2022/08/15 05:38:58;;;;;;;16.55;13.05;;;;;;;;;;4997733;28;20239;-16
2022/08/15 05:41:29;;;;;;;15.80;12.68;;;;;;;;;;5011301;28;20282;-16
2022/08/15 05:44:01;;;;;;;19.27;14.10;;;;;;;;;;5011006;28;20227;-16
2022/08/15 05:46:35;;;;;;;19.83;13.65;;;;;;;;;;5011532;28;20673;-15
2022/08/15 05:49:03;;;;;;;15.00;13.48;;;;;;;;;;5011100;28;20232;-16
2022/08/15 05:51:32;;;;;;;15.93;14.25;;;;;;;;;;5011149;28;20234;-16
2022/08/15 05:54:27;;;;;;;16.70;14.18;;;;;;;;;;5010963;28;20243;-16
2022/08/15 05:56:56;;;;;;;19.40;15.35;;;;;;;;;;5011214;28;20257;-16
2022/08/15 05:59:24;;;;;;;18.52;16.63;;;;;;;;;;5010637;28;20247;-16
2022/08/15 06:01:55;;;;;;;25.35;18.35;;;;;;;;;;5010775;28;20231;-16
2022/08/15 06:04:43;;;;;;;23.77;18.80;;;;;;;;;;5010626;28;20687;-16
2022/08/15 06:07:11;;;;;;;24.58;19.42;;;;;;;;;;5011080;28;20231;-16
2022/08/15 06:09:42;;;;;;;21.27;18.63;;;;;;;;;;5011136;28;20694;-16
2022/08/15 06:12:13;;;;;;;22.63;19.25;;;;;;;;;;5010821;28;20271;-16
2022/08/15 06:14:53;;;;;;;23.48;19.45;;;;;;;;;;5010735;28;20249;-16
2022/08/15 06:17:22;;;;;;;23.83;21.20;;;;;;;;;;5010402;28;20235;-16
2022/08/15 06:19:52;;;;;;;22.30;19.33;;;;;;;;;;5010618;28;20263;-16
2022/08/15 06:22:38;;;;;;;25.42;19.73;;;;;;;;;;5014059;28;20238;-16
2022/08/15 06:25:15;;;;;;;20.75;18.42;;;;;;;;;;5013875;28;20223;-16
2022/08/15 06:27:46;;;;;;;22.48;19.75;;;;;;;;;;5003229;28;20232;-16
2022/08/15 06:30:26;;;;;;;23.33;20.88;;;;;;;;;;5014048;28;20230;-16
2022/08/15 06:32:56;;;;;;;25.25;21.88;;;;;;;;;;5014404;28;20646;-16
2022/08/15 06:35:27;;;;;;;25.42;20.95;;;;;;;;;;5013841;28;20255;-16
2022/08/15 06:38:00;;;;;;;23.08;20.88;;;;;;;;;;5013880;28;20564;-16
2022/08/15 06:40:48;;;;;;;25.88;19.63;;;;;;;;;;5013928;28;20239;-15
2022/08/15 06:43:19;;;;;;;22.35;20.10;;;;;;;;;;5005713;28;20264;-15
2022/08/15 06:45:47;;;;;;;25.55;18.70;;;;;;;;;;5009415;28;20234;-15
2022/08/15 06:48:19;;;;;;;20.60;18.40;;;;;;;;;;5007400;28;20240;-15
2022/08/15 06:51:06;;;;;;;22.02;18.60;;;;;;;;;;5009396;28;20232;-15
2022/08/15 06:53:36;;;;;;;18.88;16.88;;;;;;;;;;5009626;28;20295;-14
2022/08/15 06:56:08;;;;;;;18.35;16.42;;;;;;;;;;5010627;28;20240;-15
2022/08/15 06:58:38;;;;;;;18.83;16.23;;;;;;;;;;5009579;28;20325;-15
2022/08/15 07:01:24;;;;;;;21.88;16.70;;;;;;;;;;5010433;28;20235;-14
2022/08/15 07:04:16;;;;;;;17.42;15.63;;;;;;;;;;5009158;28;20231;-15
2022/08/15 07:06:46;;;;;;;17.48;15.65;;;;;;;;;;5010516;28;20228;-15
2022/08/15 07:09:20;;;;;;;21.13;14.65;;;;;;;;;;5005512;28;20266;-15
2022/08/15 07:11:50;;;;;;;16.13;14.38;;;;;;;;;;5009268;28;20234;-15
2022/08/15 07:14:24;;;;;;;16.65;13.73;;;;;;;;;;5006335;28;20235;-15
2022/08/15 07:16:54;;;;;;;20.17;14.15;;;;;;;;;;5009577;28;20813;-15
2022/08/15 07:19:22;;;;;;;19.90;13.80;;;;;;;;;;5005450;28;20711;-14
2022/08/15 07:21:50;;;;;;;14.13;12.73;;;;;;;;;;5007843;28;20276;-15
2022/08/15 07:24:25;;;;;;;16.88;13.23;;;;;;;;;;5002083;28;20244;-16
2022/08/15 07:27:06;;;;;;;18.30;12.48;;;;;;;;;;5005805;28;20232;-15
2022/08/15 07:29:40;;;;;;;21.13;11.85;;;;;;;;;;4999734;28;20234;-15
2022/08/15 07:32:09;;;;;;;14.68;11.20;;;;;;;;;;5002248;28;20236;-15
2022/08/15 07:34:58;;;;;;;15.93;10.20;;;;;;;;;;5012626;28;20255;-15
2022/08/15 07:37:32;;;;;;;14.07;9.68;;;;;;;;;;5012994;28;20245;-15
2022/08/15 07:40:07;;;;;;;13.30;9.48;;;;;;;;;;5013240;28;20238;-15
2022/08/15 07:42:38;;;;;;;14.20;8.55;;;;;;;;;;5012640;28;20640;-15
2022/08/15 07:45:27;;;;;;;10.55;7.57;;;;;;;;;;5012432;28;20230;-15
2022/08/15 07:47:56;;;;;;;12.50;7.45;;;;;;;;;;5012319;28;20228;-15
2022/08/15 07:50:28;;;;;;;10.80;7.15;;;;;;;;;;5007906;28;20243;-16
2022/08/15 07:53:04;;;;;;;7.32;5.57;;;;;;;;;;5008251;28;20231;-16
2022/08/15 07:55:32;;;;;;;10.05;5.57;;;;;;;;;;5011920;28;20235;-15
2022/08/15 07:58:20;;;;;;;9.65;5.63;;;;;;;;;;5010275;28;20585;-16
2022/08/15 08:01:08;;;;;;;5.93;4.93;;;;;;;;;;5009230;28;20707;-16
2022/08/15 08:03:57;;;;;;;10.27;4.80;;;;;;;;;;5005095;28;20236;-16
2022/08/15 08:06:29;;;;;;;8.15;5.20;;;;;;;;;;5010051;28;20326;-16
2022/08/15 08:09:19;;;;;;;7.28;4.38;;;;;;;;;;5006072;28;20238;-15
2022/08/15 08:11:54;;;;;;;10.02;4.32;;;;;;;;;;5007886;28;20243;-15
2022/08/15 08:14:25;;;;;;;5.90;4.05;;;;;;;;;;5008210;28;20262;-16
2022/08/15 08:17:09;;;;;;;6.60;3.80;;;;;;;;;;5008574;28;20315;-15
2022/08/15 08:19:38;;;;;;;7.35;4.20;;;;;;;;;;5007549;28;20242;-16
2022/08/15 08:22:13;;;;;;;5.65;3.28;;;;;;;;;;5011512;28;20243;-16
2022/08/15 08:24:51;;;;;;;6.60;3.63;;;;;;;;;;5010125;28;20235;-16
2022/08/15 08:27:20;;;;;;;8.60;3.90;;;;;;;;;;5011808;28;20236;-16
2022/08/15 08:29:48;;;;;;;15.02;4.10;;;;;;;;;;5011243;28;21024;-15
2022/08/15 08:32:20;;;;;;;5.80;3.95;;;;;;;;;;5002233;28;20742;-16
2022/08/15 08:34:57;;;;;;;5.95;3.80;;;;;;;;;;5011407;28;20707;-18
2022/08/15 08:37:28;;;;;;;9.88;4.05;;;;;;;;;;4999182;28;20236;-16
2022/08/15 08:41:24;;;;;;;7.00;3.88;;;;;;;;;;5010768;28;20240;-16
2022/08/15 08:42:46;;;;;;;6.70;3.83;;;;;;;;;;5004855;28;20429;-15
2022/08/15 08:45:20;;;;;;;9.60;3.80;;;;;;;;;;5007112;28;20321;-15
2022/08/15 08:47:55;;;;;;;5.60;4.03;;;;;;;;;;5012740;28;20219;-16
2022/08/15 08:50:29;;;;;;;7.22;3.75;;;;;;;;;;5006101;28;20290;-16
2022/08/15 08:53:06;;;;;;;4.63;3.70;;;;;;;;;;4999649;28;20722;-15
2022/08/15 08:55:37;;;;;;;8.07;4.00;;;;;;;;;;5000766;28;20242;-16
2022/08/15 08:58:13;;;;;;;5.10;3.80;;;;;;;;;;4997569;28;20236;-16
2022/08/15 09:01:02;;;;;;;8.77;4.13;;;;;;;;;;5004977;28;20247;-16
2022/08/15 09:03:34;;;;;;;8.98;3.60;;;;;;;;;;4996925;28;20263;-16
2022/08/15 09:06:02;;;;;;;8.50;4.40;;;;;;;;;;4997941;28;20260;-17
2022/08/15 09:08:34;;;;;;;8.48;3.80;;;;;;;;;;5003400;28;20236;-16
2022/08/15 09:11:03;;;;;;;9.43;4.47;;;;;;;;;;5010941;28;20236;-17
2022/08/15 09:13:36;;;;;;;6.10;4.47;;;;;;;;;;5011706;28;20713;-17
2022/08/15 09:16:08;;;;;;;11.10;3.90;;;;;;;;;;5011403;28;20239;-17
2022/08/15 09:18:40;;;;;;;8.48;3.78;;;;;;;;;;5011568;28;20237;-17
2022/08/15 09:21:15;;;;;;;8.48;3.97;;;;;;;;;;5011138;28;20242;-17
2022/08/15 09:23:44;;;;;;;12.80;4.65;;;;;;;;;;5010082;28;20242;-16
2022/08/15 09:26:14;;;;;;;8.35;4.63;;;;;;;;;;5009280;28;20701;-17
2022/08/15 09:28:48;;;;;;;9.23;4.50;;;;;;;;;;5009262;28;20301;-17
2022/08/15 09:31:22;;;;;;;8.55;4.45;;;;;;;;;;5011045;28;20234;-17
2022/08/15 09:34:14;;;;;;;8.23;4.47;;;;;;;;;;5010821;28;20232;-16
2022/08/15 09:37:01;;;;;;;7.65;4.90;;;;;;;;;;5009618;28;20231;-16
2022/08/15 09:39:40;;;;;;;8.48;5.25;;;;;;;;;;5011189;28;20327;-17
2022/08/15 09:42:13;;;;;;;7.72;4.78;;;;;;;;;;5010956;28;20346;-17
2022/08/15 09:45:08;;;;;;;6.47;4.88;;;;;;;;;;5010945;28;20238;-16
2022/08/15 09:48:00;;;;;;;8.05;4.70;;;;;;;;;;4999389;28;20227;-17
2022/08/15 09:50:32;;;;;;;7.03;4.82;;;;;;;;;;5008087;28;20663;-17
2022/08/15 09:53:10;;;;;;;12.30;5.03;;;;;;;;;;5010057;28;20769;-17
2022/08/15 09:55:44;;;;;;;24.10;5.20;;;;;;;;;;5009265;28;20239;-16
2022/08/15 09:58:17;;;;;;;9.25;4.47;;;;;;;;;;5011053;28;20238;-17
2022/08/15 10:00:58;;;;;;;10.00;5.10;;;;;;;;;;5011241;28;20239;-17
2022/08/15 10:03:49;;;;;;;9.45;4.97;;;;;;;;;;5010699;28;20289;-17
2022/08/15 10:06:17;;;;;;;10.93;4.50;;;;;;;;;;4998106;28;20281;-17
2022/08/15 10:09:10;;;;;;;10.90;4.30;;;;;;;;;;5010926;28;20645;-16
2022/08/15 10:11:57;;;;;;;12.05;4.35;;;;;;;;;;5010746;28;20302;-16
2022/08/15 10:14:39;;;;;;;9.75;4.80;;;;;;;;;;5010603;28;20801;-16
2022/08/15 10:17:22;;;;;;;10.70;5.03;;;;;;;;;;5010368;28;20629;-16
2022/08/15 10:19:55;;;;;;;10.55;5.50;;;;;;;;;;4998042;28;20238;-16
2022/08/15 10:22:49;;;;;;;13.27;5.38;;;;;;;;;;5010187;28;20713;-16
2022/08/15 10:25:18;;;;;;;9.18;5.45;;;;;;;;;;5010935;28;20235;-16
2022/08/15 10:27:57;;;;;;;8.15;6.30;;;;;;;;;;5011302;28;20344;-16
2022/08/15 10:30:30;;;;;;;14.15;7.68;;;;;;;;;;5009188;28;20231;-16
2022/08/15 10:33:26;;;;;;;10.73;6.20;;;;;;;;;;5005132;28;20327;-16
2022/08/15 10:36:04;;;;;;;7.60;5.95;;;;;;;;;;5005581;28;20250;-16
2022/08/15 10:38:47;;;;;;;9.27;6.20;;;;;;;;;;5007758;28;20238;-16
2022/08/15 10:41:16;;;;;;;15.23;7.45;;;;;;;;;;5003363;28;21056;-16
2022/08/15 10:43:49;;;;;;;9.73;6.32;;;;;;;;;;5002314;28;20232;-16
2022/08/15 10:46:23;;;;;;;8.23;6.10;;;;;;;;;;5007485;28;21088;-16
2022/08/15 10:48:57;;;;;;;10.30;5.88;;;;;;;;;;4993806;28;20228;-16
2022/08/15 10:51:34;;;;;;;11.25;6.70;;;;;;;;;;5001439;28;20231;-16
2022/08/15 10:54:10;;;;;;;9.55;5.97;;;;;;;;;;5004016;28;20298;-16
2022/08/15 10:56:45;;;;;;;11.55;6.55;;;;;;;;;;5002563;28;20714;-16
2022/08/15 10:59:34;;;;;;;8.65;5.78;;;;;;;;;;5003035;28;20704;-16
2022/08/15 11:02:18;;;;;;;8.02;5.80;;;;;;;;;;5002809;28;20270;-16
2022/08/15 11:05:05;;;;;;;8.52;5.80;;;;;;;;;;5006273;28;20248;-17
2022/08/15 11:07:34;;;;;;;15.38;6.28;;;;;;;;;;5005295;28;20905;-16
2022/08/15 11:10:03;;;;;;;7.28;6.50;;;;;;;;;;4996912;28;20242;-16
2022/08/15 11:12:48;;;;;;;12.52;6.20;;;;;;;;;;5009637;28;20294;-16
2022/08/15 11:15:17;;;;;;;8.23;5.60;;;;;;;;;;4998434;28;20291;-16
2022/08/15 11:17:53;;;;;;;12.75;7.20;;;;;;;;;;5002271;28;20286;-16
2022/08/15 11:20:24;;;;;;;11.32;6.20;;;;;;;;;;5012992;28;20227;-16
2022/08/15 11:22:52;;;;;;;8.68;6.18;;;;;;;;;;5012205;28;20240;-16
2022/08/15 11:25:23;;;;;;;10.40;7.30;;;;;;;;;;5004346;28;20231;-17
2022/08/15 11:28:00;;;;;;;9.77;7.05;;;;;;;;;;5010216;28;20251;-16
2022/08/15 11:30:28;;;;;;;13.55;7.60;;;;;;;;;;5007480;28;20238;-16
2022/08/15 11:33:12;;;;;;;11.23;7.03;;;;;;;;;;5012033;28;20235;-16
2022/08/15 11:35:42;;;;;;;9.10;7.32;;;;;;;;;;5003835;28;20668;-16
2022/08/15 11:38:17;;;;;;;15.80;7.95;;;;;;;;;;5011236;28;20393;-16
2022/08/15 11:40:49;;;;;;;13.95;7.55;;;;;;;;;;5012356;28;20327;-16
2022/08/15 11:43:17;;;;;;;10.70;7.07;;;;;;;;;;5012274;28;20234;-16
2022/08/15 11:45:45;;;;;;;12.27;7.03;;;;;;;;;;5012274;28;20271;-16
2022/08/15 11:48:22;;;;;;;11.70;7.15;;;;;;;;;;5012446;28;20235;-16
2022/08/15 11:51:06;;;;;;;16.50;7.80;;;;;;;;;;5012702;28;20679;-16
2022/08/15 11:53:36;;;;;;;13.60;6.82;;;;;;;;;;5012553;28;20294;-16
2022/08/15 11:56:04;;;;;;;11.05;7.15;;;;;;;;;;5012677;28;20703;-16
2022/08/15 11:58:33;;;;;;;15.20;8.05;;;;;;;;;;5012234;28;20745;-16
2022/08/15 12:01:22;;;;;;;10.50;6.82;;;;;;;;;;5012598;28;20298;-16
2022/08/15 12:04:01;;;;;;;17.73;6.75;;;;;;;;;;5012836;28;20236;-17
2022/08/15 12:06:50;;;;;;;11.80;5.93;;;;;;;;;;5009035;28;20238;-16
2022/08/15 12:09:23;;;;;;;7.25;5.95;;;;;;;;;;5006789;28;20223;-16
2022/08/15 12:12:28;;;;;;;9.25;5.57;;;;;;;;;;5003341;28;20231;-16
2022/08/15 12:15:02;;;;;;;10.50;5.78;;;;;;;;;;5004329;28;20343;-16
2022/08/15 12:17:30;;;;;;;7.75;5.78;;;;;;;;;;4997492;28;20240;-16
2022/08/15 12:20:32;;;;;;;7.78;5.47;;;;;;;;;;5002247;28;20258;-16
2022/08/15 12:23:16;;;;;;;8.05;5.40;;;;;;;;;;5012008;28;20317;-15
2022/08/15 12:25:45;;;;;;;8.55;5.80;;;;;;;;;;5006093;28;21101;-16
2022/08/15 12:28:21;;;;;;;7.82;5.40;;;;;;;;;;5006252;28;20235;-16
2022/08/15 12:31:10;;;;;;;7.82;5.90;;;;;;;;;;5008187;28;20238;-16
2022/08/15 12:33:43;;;;;;;7.78;5.50;;;;;;;;;;5003523;28;20242;-16
2022/08/15 12:36:19;;;;;;;8.45;5.65;;;;;;;;;;5009088;28;20322;-16
2022/08/15 12:39:06;;;;;;;9.52;6.15;;;;;;;;;;5012519;28;20235;-15
2022/08/15 12:41:38;;;;;;;7.90;5.60;;;;;;;;;;5012453;28;20235;-16
2022/08/15 12:44:26;;;;;;;10.25;5.72;;;;;;;;;;5012136;28;20240;-16
2022/08/15 12:46:56;;;;;;;7.90;5.82;;;;;;;;;;5012190;28;20243;-15
2022/08/15 12:49:23;;;;;;;8.55;5.60;;;;;;;;;;5010953;28;20242;-16
2022/08/15 12:51:51;;;;;;;7.15;5.25;;;;;;;;;;5006065;28;20234;-16
2022/08/15 12:54:19;;;;;;;8.65;5.90;;;;;;;;;;5011949;28;20242;-16
2022/08/15 12:56:55;;;;;;;8.95;5.80;;;;;;;;;;4999104;28;20236;-16
2022/08/15 12:59:39;;;;;;;7.25;4.97;;;;;;;;;;5005772;28;20258;-15
2022/08/15 13:02:08;;;;;;;10.02;5.00;;;;;;;;;;5011900;28;20243;-16
2022/08/15 13:04:37;;;;;;;8.85;5.57;;;;;;;;;;5007650;28;20239;-16
2022/08/15 13:07:21;;;;;;;9.65;5.03;;;;;;;;;;5012486;28;20236;-16
2022/08/15 13:09:58;;;;;;;8.10;5.60;;;;;;;;;;5011793;28;20235;-16
2022/08/15 13:12:27;;;;;;;7.05;5.38;;;;;;;;;;5011914;28;21079;-16
2022/08/15 13:14:54;;;;;;;7.72;5.30;;;;;;;;;;5010896;28;20306;-16
2022/08/15 13:17:21;;;;;;;8.13;5.65;;;;;;;;;;5011519;28;20242;-16
2022/08/15 13:25:39;;;;;;;9.93;5.93;;;;;;;;;;5011006;28;20231;-15
2022/08/15 13:28:09;;;;;;;7.03;5.53;;;;;;;;;;5011836;28;20227;-15
2022/08/15 13:30:38;;;;;;;9.32;5.68;;;;;;;;;;5011621;28;20247;-16
2022/08/15 13:33:26;;;;;;;11.02;5.13;;;;;;;;;;5008768;28;20263;-16
2022/08/15 13:35:55;;;;;;;6.88;5.03;;;;;;;;;;5002859;28;20338;-15
2022/08/15 13:38:27;;;;;;;9.52;5.55;;;;;;;;;;5004221;28;21010;-18
2022/08/15 13:40:57;;;;;;;10.00;5.32;;;;;;;;;;5007108;28;20655;-17
2022/08/15 13:43:32;;;;;;;9.63;5.20;;;;;;;;;;5001329;28;21158;-17
2022/08/15 13:46:19;;;;;;;7.85;5.85;;;;;;;;;;5009800;28;20369;-15
2022/08/15 13:48:58;;;;;;;7.63;5.82;;;;;;;;;;5013886;28;20242;-17
2022/08/15 13:51:30;;;;;;;7.65;5.50;;;;;;;;;;5006028;28;20638;-15
2022/08/15 13:54:18;;;;;;;10.18;5.78;;;;;;;;;;5018591;28;20344;-15
2022/08/15 13:57:06;;;;;;;7.00;5.13;;;;;;;;;;5011119;28;20243;-17
2022/08/15 13:59:39;;;;;;;8.00;5.28;;;;;;;;;;5000285;28;20322;-16
2022/08/15 14:02:08;;;;;;;9.57;5.60;;;;;;;;;;5008386;28;20231;-16
2022/08/15 14:04:56;;;;;;;8.20;5.70;;;;;;;;;;5006868;28;20721;-16
2022/08/15 14:07:26;;;;;;;9.30;5.75;;;;;;;;;;5007070;28;20238;-16
2022/08/15 14:10:15;;;;;;;10.00;6.25;;;;;;;;;;5008105;28;20234;-16
2022/08/15 14:13:02;;;;;;;6.82;5.70;;;;;;;;;;5007403;28;20236;-15
2022/08/15 14:15:41;;;;;;;8.73;6.38;;;;;;;;;;4999221;28;20242;-16
2022/08/15 14:18:29;;;;;;;6.57;5.90;;;;;;;;;;5010181;28;20243;-16
2022/08/15 14:21:16;;;;;;;9.38;5.88;;;;;;;;;;5006689;28;20601;-16
2022/08/15 14:23:55;;;;;;;9.05;5.65;;;;;;;;;;5011753;28;21042;-16
2022/08/15 14:26:24;;;;;;;6.63;5.57;;;;;;;;;;5003719;28;20266;-16
2022/08/15 14:29:13;;;;;;;7.13;5.70;;;;;;;;;;5013185;28;20231;-17
2022/08/15 14:31:46;;;;;;;7.03;5.13;;;;;;;;;;5004112;28;20241;-17
2022/08/15 14:34:23;;;;;;;6.78;5.60;;;;;;;;;;5006133;28;20313;-18
2022/08/15 14:37:11;;;;;;;7.13;5.28;;;;;;;;;;4999432;28;20234;-16
2022/08/15 14:39:40;;;;;;;6.57;5.88;;;;;;;;;;5004307;28;20325;-15
2022/08/15 14:42:08;;;;;;;8.52;5.78;;;;;;;;;;4997227;28;20228;-16
2022/08/15 14:44:43;;;;;;;7.35;5.45;;;;;;;;;;5001511;28;20235;-16
2022/08/15 14:47:16;;;;;;;6.45;5.18;;;;;;;;;;5009536;28;20703;-15
2022/08/15 14:49:43;;;;;;;9.50;5.20;;;;;;;;;;5007379;28;20234;-16
2022/08/15 14:52:31;;;;;;;6.90;5.70;;;;;;;;;;5007644;28;20230;-16
2022/08/15 14:54:59;;;;;;;6.50;5.72;;;;;;;;;;5007456;28;20236;-15
2022/08/15 14:57:26;;;;;;;5.78;5.10;;;;;;;;;;5014176;28;20706;-16
2022/08/15 15:00:07;;;;;;;13.05;5.38;;;;;;;;;;5005646;28;20239;-15
2022/08/15 15:02:36;;;;;;;8.68;5.35;;;;;;;;;;5007325;28;20231;-16
2022/08/15 15:05:23;;;;;;;9.65;5.63;;;;;;;;;;5005947;28;20240;-16
2022/08/15 15:08:11;;;;;;;8.30;5.10;;;;;;;;;;5005258;28;20246;-16
2022/08/15 15:10:47;;;;;;;7.32;5.10;;;;;;;;;;5005913;28;20330;-15
2022/08/15 15:13:16;;;;;;;7.28;5.47;;;;;;;;;;5006874;28;20243;-16
2022/08/15 15:15:46;;;;;;;7.28;5.60;;;;;;;;;;5007281;28;20295;-16
2022/08/15 15:18:35;;;;;;;7.82;5.20;;;;;;;;;;5005543;28;20243;-16
2022/08/15 15:21:22;;;;;;;6.07;5.32;;;;;;;;;;5001062;28;20354;-15
2022/08/15 15:23:52;;;;;;;6.13;5.53;;;;;;;;;;5005390;28;20781;-15
2022/08/15 15:26:21;;;;;;;6.15;5.47;;;;;;;;;;5005179;28;20239;-17
2022/08/15 15:29:08;;;;;;;5.75;5.15;;;;;;;;;;5003279;28;20292;-15
2022/08/15 15:31:37;;;;;;;7.70;5.50;;;;;;;;;;5010017;28;20231;-16